SAS787 EKCH-LIEO
Flight info
| Callsign | SAS787 |
|---|---|
| Flight time | N/A |
| Altitude | 38000 |
| Route | SALLO M44 KOGIM M602 USEDU DCT ADLIR DCT OSKAN DCT MAREM DCT RUDAP DCT BAMTA DCT RADIZ DCT VABMO DCT TINTO DCT GITRI |
| Aircraft | A320/M-SDE3FGHIRWY/LB1 |
Departure
| Time | 2026-04-26 11:19 |
|---|---|
| Airport | Copenhagen Kastrup Airport (EKCH) |
Arrival
| Time | N/A |
|---|---|
| Airport | Olbia Costa Smeralda Airport (LIEO) |
| Time | Latitude | Longitude | Altitude | Speed | Heading |
|---|---|---|---|---|---|
| 2026-04-26 10:36 | 55.62648 | 12.64555 | 24 ft | 0 kts | 281° |
| 2026-04-26 11:07 | 55.62645 | 12.64586 | 24 ft | 4 kts | 274° |
| 2026-04-26 11:07 | 55.62646 | 12.64633 | 24 ft | 4 kts | 253° |
| 2026-04-26 11:08 | 55.62658 | 12.64669 | 26 ft | 4 kts | 198° |
| 2026-04-26 11:08 | 55.62654 | 12.64668 | 25 ft | 4 kts | 192° |
| 2026-04-26 11:08 | 55.62628 | 12.64659 | 24 ft | 4 kts | 190° |
| 2026-04-26 11:08 | 55.62601 | 12.64653 | 24 ft | 4 kts | 185° |
| 2026-04-26 11:09 | 55.62579 | 12.64652 | 24 ft | 2 kts | 181° |
| 2026-04-26 11:09 | 55.62553 | 12.64652 | 24 ft | 4 kts | 179° |
| 2026-04-26 11:09 | 55.62531 | 12.64653 | 24 ft | 0 kts | 179° |
| 2026-04-26 11:11 | 55.62523 | 12.64653 | 24 ft | 4 kts | 178° |
| 2026-04-26 11:11 | 55.62472 | 12.64664 | 24 ft | 10 kts | 172° |
| 2026-04-26 11:11 | 55.62410 | 12.64736 | 24 ft | 12 kts | 122° |
| 2026-04-26 11:12 | 55.62377 | 12.64813 | 24 ft | 0 kts | 126° |
| 2026-04-26 11:13 | 55.62369 | 12.64834 | 24 ft | 5 kts | 126° |
| 2026-04-26 11:13 | 55.62340 | 12.64905 | 24 ft | 9 kts | 123° |
| 2026-04-26 11:13 | 55.62298 | 12.65020 | 24 ft | 13 kts | 123° |
| 2026-04-26 11:13 | 55.62241 | 12.65159 | 24 ft | 15 kts | 144° |
| 2026-04-26 11:14 | 55.62140 | 12.65100 | 24 ft | 17 kts | 212° |
| 2026-04-26 11:14 | 55.62039 | 12.64982 | 26 ft | 16 kts | 213° |
| 2026-04-26 11:14 | 55.61933 | 12.64860 | 25 ft | 19 kts | 213° |
| 2026-04-26 11:14 | 55.61861 | 12.64777 | 24 ft | 16 kts | 213° |
| 2026-04-26 11:15 | 55.61725 | 12.64621 | 24 ft | 19 kts | 213° |
| 2026-04-26 11:15 | 55.61606 | 12.64482 | 26 ft | 22 kts | 213° |
| 2026-04-26 11:15 | 55.61469 | 12.64327 | 25 ft | 25 kts | 213° |
| 2026-04-26 11:15 | 55.61341 | 12.64178 | 24 ft | 22 kts | 213° |
| 2026-04-26 11:16 | 55.61213 | 12.64030 | 24 ft | 20 kts | 213° |
| 2026-04-26 11:16 | 55.61087 | 12.63885 | 26 ft | 21 kts | 213° |
| 2026-04-26 11:16 | 55.60989 | 12.63773 | 26 ft | 17 kts | 213° |
| 2026-04-26 11:16 | 55.60881 | 12.63650 | 24 ft | 18 kts | 213° |
| 2026-04-26 11:17 | 55.60788 | 12.63608 | 24 ft | 14 kts | 153° |
| 2026-04-26 11:17 | 55.60751 | 12.63675 | 24 ft | 0 kts | 132° |
| 2026-04-26 11:17 | 55.60750 | 12.63677 | 24 ft | 2 kts | 132° |
| 2026-04-26 11:17 | 55.60721 | 12.63734 | 24 ft | 10 kts | 131° |
| 2026-04-26 11:18 | 55.60686 | 12.63850 | 27 ft | 12 kts | 86° |
| 2026-04-26 11:18 | 55.60731 | 12.63952 | 26 ft | 11 kts | 41° |
| 2026-04-26 11:18 | 55.60924 | 12.64250 | 25 ft | 71 kts | 40° |
| 2026-04-26 11:18 | 55.61447 | 12.65059 | 25 ft | 126 kts | 41° |
| 2026-04-26 11:19 | 55.62193 | 12.66215 | 318 ft | 144 kts | 39° |
| 2026-04-26 11:19 | 55.62945 | 12.67391 | 1178 ft | 149 kts | 31° |
| 2026-04-26 11:19 | 55.63786 | 12.68684 | 1564 ft | 172 kts | 32° |
| 2026-04-26 11:19 | 55.64745 | 12.70167 | 1840 ft | 196 kts | 36° |
| 2026-04-26 11:20 | 55.65484 | 12.72431 | 2092 ft | 234 kts | 73° |
| 2026-04-26 11:20 | 55.65550 | 12.74419 | 2338 ft | 256 kts | 96° |
| 2026-04-26 11:20 | 55.64449 | 12.78356 | 3195 ft | 280 kts | 139° |
| 2026-04-26 11:20 | 55.62842 | 12.80255 | 4094 ft | 280 kts | 158° |
| 2026-04-26 11:21 | 55.61072 | 12.81739 | 5068 ft | 283 kts | 158° |
| 2026-04-26 11:21 | 55.59280 | 12.83227 | 5971 ft | 287 kts | 159° |
| 2026-04-26 11:21 | 55.57453 | 12.84741 | 6845 ft | 293 kts | 159° |
| 2026-04-26 11:21 | 55.55583 | 12.86291 | 7635 ft | 300 kts | 159° |
| 2026-04-26 11:22 | 55.53679 | 12.87871 | 8427 ft | 306 kts | 159° |
| 2026-04-26 11:22 | 55.51729 | 12.89490 | 9206 ft | 312 kts | 159° |
| 2026-04-26 11:22 | 55.49739 | 12.91141 | 10003 ft | 319 kts | 160° |
| 2026-04-26 11:22 | 55.47705 | 12.92823 | 10573 ft | 332 kts | 160° |
| 2026-04-26 11:23 | 55.45534 | 12.94610 | 10815 ft | 356 kts | 159° |
| 2026-04-26 11:23 | 55.43226 | 12.96513 | 11038 ft | 377 kts | 159° |
| 2026-04-26 11:23 | 55.40820 | 12.98506 | 11592 ft | 386 kts | 159° |
| 2026-04-26 11:23 | 55.38379 | 13.00534 | 12258 ft | 391 kts | 159° |
| 2026-04-26 11:24 | 55.35902 | 13.02586 | 12917 ft | 396 kts | 159° |
| 2026-04-26 11:24 | 55.33396 | 13.04654 | 13600 ft | 400 kts | 159° |
| 2026-04-26 11:24 | 55.30863 | 13.06734 | 14252 ft | 405 kts | 159° |
| 2026-04-26 11:24 | 55.28296 | 13.08839 | 14856 ft | 409 kts | 159° |
| 2026-04-26 11:25 | 55.25710 | 13.10960 | 15449 ft | 412 kts | 159° |
| 2026-04-26 11:25 | 55.23100 | 13.13098 | 16031 ft | 416 kts | 159° |
| 2026-04-26 11:25 | 55.20462 | 13.15254 | 16590 ft | 420 kts | 159° |
| 2026-04-26 11:25 | 55.17799 | 13.17428 | 17184 ft | 424 kts | 159° |
| 2026-04-26 11:26 | 55.15110 | 13.19625 | 17775 ft | 428 kts | 159° |
| 2026-04-26 11:26 | 55.12401 | 13.21831 | 18375 ft | 433 kts | 159° |
| 2026-04-26 11:26 | 55.09658 | 13.24060 | 18932 ft | 437 kts | 159° |
| 2026-04-26 11:26 | 55.06891 | 13.26301 | 19483 ft | 440 kts | 159° |
| 2026-04-26 11:27 | 55.05042 | 13.27798 | 19866 ft | 443 kts | 159° |
| 2026-04-26 11:27 | 55.01323 | 13.30809 | 20645 ft | 447 kts | 159° |
| 2026-04-26 11:27 | 54.99414 | 13.32349 | 21021 ft | 449 kts | 159° |
| 2026-04-26 11:27 | 54.95631 | 13.35396 | 21719 ft | 453 kts | 159° |
| 2026-04-26 11:28 | 54.92741 | 13.37592 | 22219 ft | 453 kts | 165° |
| 2026-04-26 11:28 | 54.90714 | 13.38701 | 22557 ft | 451 kts | 171° |
| 2026-04-26 11:28 | 54.87636 | 13.39710 | 23053 ft | 449 kts | 177° |
| 2026-04-26 11:28 | 54.84533 | 13.40529 | 23539 ft | 452 kts | 177° |
| 2026-04-26 11:29 | 54.81456 | 13.41345 | 23994 ft | 455 kts | 177° |
| 2026-04-26 11:29 | 54.78315 | 13.42184 | 24397 ft | 457 kts | 177° |
| 2026-04-26 11:29 | 54.75161 | 13.43032 | 24789 ft | 460 kts | 177° |
| 2026-04-26 11:29 | 54.71953 | 13.43898 | 25170 ft | 462 kts | 176° |
| 2026-04-26 11:30 | 54.68768 | 13.44763 | 25554 ft | 464 kts | 176° |
| 2026-04-26 11:30 | 54.65610 | 13.45615 | 25908 ft | 467 kts | 176° |
| 2026-04-26 11:30 | 54.62393 | 13.46475 | 26272 ft | 469 kts | 177° |
| 2026-04-26 11:30 | 54.59180 | 13.47327 | 26629 ft | 471 kts | 176° |
| 2026-04-26 11:31 | 54.55913 | 13.48194 | 27003 ft | 473 kts | 176° |
| 2026-04-26 11:31 | 54.52646 | 13.49062 | 27376 ft | 476 kts | 176° |
| 2026-04-26 11:31 | 54.49373 | 13.49931 | 27731 ft | 478 kts | 176° |
| 2026-04-26 11:31 | 54.46079 | 13.50783 | 28085 ft | 480 kts | 177° |
| 2026-04-26 11:32 | 54.42762 | 13.51615 | 28435 ft | 482 kts | 177° |
| 2026-04-26 11:32 | 54.39442 | 13.52440 | 28787 ft | 484 kts | 177° |
| 2026-04-26 11:32 | 54.36100 | 13.53272 | 29117 ft | 486 kts | 177° |
| 2026-04-26 11:32 | 54.32763 | 13.54381 | 29473 ft | 493 kts | 169° |
| 2026-04-26 11:33 | 54.29513 | 13.56318 | 29960 ft | 497 kts | 160° |
| 2026-04-26 11:33 | 54.26398 | 13.58923 | 30441 ft | 498 kts | 157° |
| 2026-04-26 11:33 | 54.23312 | 13.61581 | 30848 ft | 496 kts | 157° |
| 2026-04-26 11:33 | 54.20239 | 13.64214 | 31254 ft | 496 kts | 157° |
| 2026-04-26 11:34 | 54.17139 | 13.66857 | 31668 ft | 495 kts | 158° |
| 2026-04-26 11:34 | 54.14057 | 13.69479 | 32091 ft | 494 kts | 158° |
| 2026-04-26 11:34 | 54.11038 | 13.72306 | 32506 ft | 497 kts | 150° |
| 2026-04-26 11:34 | 54.08253 | 13.75803 | 32918 ft | 500 kts | 142° |
| 2026-04-26 11:35 | 54.05710 | 13.79845 | 33330 ft | 501 kts | 139° |
| 2026-04-26 11:35 | 54.03193 | 13.83946 | 33751 ft | 500 kts | 139° |
| 2026-04-26 11:35 | 54.00568 | 13.87790 | 34160 ft | 496 kts | 148° |
| 2026-04-26 11:35 | 53.97641 | 13.90841 | 34536 ft | 489 kts | 159° |
| 2026-04-26 11:36 | 53.94517 | 13.92992 | 34894 ft | 482 kts | 168° |
| 2026-04-26 11:36 | 53.91275 | 13.94265 | 35241 ft | 473 kts | 178° |
| 2026-04-26 11:36 | 53.88029 | 13.94676 | 35578 ft | 465 kts | 187° |
| 2026-04-26 11:36 | 53.84839 | 13.94279 | 35899 ft | 457 kts | 195° |
| 2026-04-26 11:37 | 53.81683 | 13.93543 | 36202 ft | 457 kts | 194° |
| 2026-04-26 11:37 | 53.78534 | 13.92815 | 36511 ft | 456 kts | 194° |
| 2026-04-26 11:37 | 53.75391 | 13.92091 | 36809 ft | 456 kts | 194° |
| 2026-04-26 11:37 | 53.72238 | 13.91371 | 37099 ft | 456 kts | 194° |
| 2026-04-26 11:38 | 53.69097 | 13.90657 | 37386 ft | 456 kts | 194° |
| 2026-04-26 11:38 | 53.65958 | 13.89946 | 37660 ft | 455 kts | 194° |
| 2026-04-26 11:38 | 53.62816 | 13.89238 | 37943 ft | 455 kts | 194° |
| 2026-04-26 11:38 | 53.59686 | 13.88534 | 38211 ft | 455 kts | 193° |
| 2026-04-26 11:39 | 53.56535 | 13.87825 | 38313 ft | 457 kts | 193° |
| 2026-04-26 11:39 | 53.53376 | 13.87113 | 38323 ft | 459 kts | 193° |
| 2026-04-26 11:39 | 53.47083 | 13.85695 | 38322 ft | 459 kts | 193° |
| 2026-04-26 11:40 | 53.40750 | 13.84265 | 38318 ft | 459 kts | 193° |
| 2026-04-26 11:40 | 53.34412 | 13.82840 | 38322 ft | 459 kts | 193° |
| 2026-04-26 11:42 | 53.09072 | 13.77219 | 38320 ft | 459 kts | 193° |
| 2026-04-26 11:43 | 53.02738 | 13.75827 | 38327 ft | 459 kts | 193° |
| 2026-04-26 11:43 | 52.96410 | 13.74432 | 38329 ft | 459 kts | 193° |
| 2026-04-26 11:44 | 52.90081 | 13.73035 | 38298 ft | 458 kts | 193° |
| 2026-04-26 11:44 | 52.83750 | 13.71649 | 38319 ft | 458 kts | 193° |
| 2026-04-26 11:45 | 52.77437 | 13.70269 | 38328 ft | 458 kts | 193° |
| 2026-04-26 11:45 | 52.71125 | 13.68891 | 38330 ft | 457 kts | 193° |
| 2026-04-26 11:46 | 52.64812 | 13.67527 | 38334 ft | 457 kts | 193° |
| 2026-04-26 11:46 | 52.58514 | 13.66179 | 38334 ft | 456 kts | 193° |
| 2026-04-26 11:47 | 52.52227 | 13.64814 | 38342 ft | 455 kts | 193° |
| 2026-04-26 11:47 | 52.45954 | 13.63459 | 38343 ft | 455 kts | 193° |
| 2026-04-26 11:48 | 52.39658 | 13.62235 | 38347 ft | 458 kts | 187° |
| 2026-04-26 11:48 | 52.33274 | 13.62249 | 38340 ft | 459 kts | 184° |
| 2026-04-26 11:49 | 52.26880 | 13.62280 | 38340 ft | 458 kts | 185° |
| 2026-04-26 11:49 | 52.20501 | 13.62306 | 38337 ft | 458 kts | 184° |
| 2026-04-26 11:50 | 52.14125 | 13.62344 | 38324 ft | 458 kts | 184° |
| 2026-04-26 11:50 | 52.07765 | 13.62391 | 38330 ft | 457 kts | 184° |
| 2026-04-26 11:51 | 52.01443 | 13.62441 | 38327 ft | 457 kts | 184° |
| 2026-04-26 11:51 | 51.95082 | 13.62479 | 38317 ft | 457 kts | 184° |
| 2026-04-26 11:52 | 51.89758 | 13.62512 | 38318 ft | 456 kts | 184° |
| 2026-04-26 11:52 | 51.82385 | 13.62545 | 38318 ft | 456 kts | 184° |
| 2026-04-26 11:53 | 51.76043 | 13.62579 | 38320 ft | 456 kts | 184° |
| 2026-04-26 11:54 | 51.66539 | 13.62633 | 38319 ft | 455 kts | 184° |
| 2026-04-26 11:54 | 51.60209 | 13.62679 | 38315 ft | 454 kts | 184° |
| 2026-04-26 11:55 | 51.53885 | 13.62729 | 38311 ft | 454 kts | 184° |
| 2026-04-26 11:55 | 51.47579 | 13.62763 | 38310 ft | 453 kts | 184° |
| 2026-04-26 11:56 | 51.41272 | 13.62780 | 38315 ft | 453 kts | 184° |
| 2026-04-26 11:56 | 51.34975 | 13.62777 | 38325 ft | 452 kts | 184° |
| 2026-04-26 11:57 | 51.28681 | 13.62779 | 38331 ft | 452 kts | 184° |
| 2026-04-26 11:57 | 51.22397 | 13.62804 | 38334 ft | 451 kts | 184° |
| 2026-04-26 11:58 | 51.16153 | 13.62821 | 38344 ft | 451 kts | 184° |
| 2026-04-26 11:58 | 51.09891 | 13.62820 | 38343 ft | 450 kts | 184° |